createdAt,value
2023-05-12T00:00:06.141Z,93977.44
2023-05-12T00:02:38.361Z,93966.19
2023-05-12T00:05:06.302Z,93966.94
2023-05-12T00:07:32.813Z,93973.56
2023-05-12T00:09:59.352Z,93975.88
2023-05-12T00:12:26.111Z,93971.22
2023-05-12T00:14:52.675Z,93973.56
2023-05-12T00:17:19.306Z,93974.72
2023-05-12T00:19:45.860Z,93974.72
2023-05-12T00:22:12.830Z,93968.09
2023-05-12T00:24:39.854Z,93971.97
2023-05-12T00:27:07.414Z,93977.03
2023-05-12T00:29:34.476Z,93976.22
2023-05-12T00:32:01.197Z,93981.25
2023-05-12T00:34:28.431Z,93971.88
2023-05-12T00:36:55.210Z,93966.44
2023-05-12T00:39:21.849Z,93971.91
2023-05-12T00:41:50.042Z,93970.41
2023-05-12T00:44:18.406Z,93976.66
2023-05-12T00:46:45.085Z,93963.41
2023-05-12T00:49:12.189Z,93964.19
2023-05-12T00:51:39.685Z,93963.41
2023-05-12T00:54:06.260Z,93964.94
2023-05-12T00:56:39.183Z,93957.94
2023-05-12T00:59:08.112Z,93950.16
2023-05-12T01:01:38.362Z,93955.59
2023-05-12T01:04:07.589Z,93956.00
2023-05-12T01:06:48.626Z,93955.22
2023-05-12T01:09:16.343Z,93952.06
2023-05-12T01:11:44.000Z,93954.81
2023-05-12T01:14:11.121Z,93950.88
2023-05-12T01:16:52.863Z,93950.84
2023-05-12T01:19:40.774Z,93950.81
2023-05-12T01:22:10.152Z,93948.09
2023-05-12T01:24:48.087Z,93949.31
2023-05-12T01:27:16.376Z,93952.41
2023-05-12T01:29:46.631Z,93951.25
2023-05-12T01:32:15.324Z,93947.75
2023-05-12T01:34:44.235Z,93953.94
2023-05-12T01:37:12.625Z,93954.34
2023-05-12T01:39:40.097Z,93943.88
2023-05-12T01:42:08.598Z,93938.06
2023-05-12T01:44:35.163Z,93939.22
2023-05-12T01:47:02.029Z,93954.81
2023-05-12T01:49:30.597Z,93945.47
2023-05-12T01:51:57.518Z,93951.28
2023-05-12T01:54:29.413Z,93949.69
2023-05-12T01:56:56.141Z,93949.34
2023-05-12T01:59:22.770Z,93944.25
2023-05-12T02:01:49.467Z,93951.69
2023-05-12T02:04:22.222Z,93955.63
2023-05-12T02:06:49.601Z,93951.72
2023-05-12T02:09:16.124Z,93950.16
2023-05-12T02:11:42.774Z,93948.22
2023-05-12T02:14:09.292Z,93946.28
2023-05-12T02:16:36.735Z,93944.66
2023-05-12T02:19:04.236Z,93939.22
2023-05-12T02:21:32.858Z,93949.75
2023-05-12T02:23:59.741Z,93944.31
2023-05-12T02:26:26.412Z,93949.75
2023-05-12T02:28:53.588Z,93937.31
2023-05-12T02:31:20.845Z,93942.78
2023-05-12T02:33:47.515Z,93948.59
2023-05-12T02:36:14.294Z,93947.44
2023-05-12T02:38:41.177Z,93949.41
2023-05-12T02:41:08.003Z,93946.69
2023-05-12T02:43:34.606Z,93942.38
2023-05-12T02:46:01.375Z,93946.28
2023-05-12T02:48:28.073Z,93949.00
2023-05-12T02:50:54.619Z,93946.69
2023-05-12T02:53:21.454Z,93940.06
2023-05-12T02:55:48.183Z,93942.41
2023-05-12T02:58:14.825Z,93951.75
2023-05-12T03:00:41.378Z,93934.22
2023-05-12T03:03:08.207Z,93947.06
2023-05-12T03:05:34.873Z,93946.28
2023-05-12T03:08:02.160Z,93936.19
2023-05-12T03:10:28.818Z,93948.25
2023-05-12T03:12:55.389Z,93940.06
2023-05-12T03:15:21.957Z,93946.28
2023-05-12T03:17:48.653Z,93945.53
2023-05-12T03:20:15.234Z,93943.16
2023-05-12T03:22:43.187Z,93934.97
2023-05-12T03:25:10.786Z,93943.56
2023-05-12T03:27:37.706Z,93939.66
2023-05-12T03:30:05.632Z,93937.28
2023-05-12T03:32:35.534Z,93937.69
2023-05-12T03:35:02.131Z,93933.81
2023-05-12T03:37:28.747Z,93925.63
2023-05-12T03:39:56.208Z,93926.81
2023-05-12T03:42:25.970Z,93925.63
2023-05-12T03:44:52.533Z,93925.63
2023-05-12T03:47:21.678Z,93921.34
2023-05-12T03:49:48.485Z,93928.38
2023-05-12T03:52:15.052Z,93926.44
2023-05-12T03:54:44.701Z,93925.28
2023-05-12T03:57:12.424Z,93924.47
2023-05-12T03:59:38.947Z,93926.03
2023-05-12T04:02:07.719Z,93923.72
2023-05-12T04:04:35.762Z,93928.38
2023-05-12T04:07:02.290Z,93921.75
2023-05-12T04:09:31.739Z,93923.31
2023-05-12T04:11:58.833Z,93920.19
2023-05-12T04:14:35.202Z,93920.97
2023-05-12T04:17:08.509Z,93917.09
2023-05-12T04:19:35.100Z,93915.53
2023-05-12T04:22:01.696Z,93919.03
2023-05-12T04:24:31.137Z,93921.34
2023-05-12T04:26:57.890Z,93920.97
2023-05-12T04:29:24.800Z,93929.94
2023-05-12T04:31:51.426Z,93929.53
2023-05-12T04:34:20.367Z,93929.53
2023-05-12T04:36:47.104Z,93938.50
2023-05-12T04:39:14.387Z,93921.72
2023-05-12T04:41:40.972Z,93928.75
2023-05-12T04:44:07.916Z,93926.41
2023-05-12T04:46:34.622Z,93932.63
2023-05-12T04:49:01.382Z,93936.16
2023-05-12T04:51:27.950Z,93933.03
2023-05-12T04:53:54.532Z,93939.25
2023-05-12T04:56:22.248Z,93940.06
2023-05-12T04:58:49.027Z,93939.66
2023-05-12T05:01:16.087Z,93945.50
2023-05-12T05:03:43.294Z,93947.47
2023-05-12T05:06:10.192Z,93951.31
2023-05-12T05:08:36.895Z,93952.50
2023-05-12T05:11:03.675Z,93954.06
2023-05-12T05:13:31.314Z,93961.06
2023-05-12T05:15:58.180Z,93961.41
2023-05-12T05:18:25.625Z,93958.66
2023-05-12T05:23:22.748Z,93956.69
2023-05-12T05:25:49.717Z,93960.16
2023-05-12T05:28:17.110Z,93957.84
2023-05-12T05:30:43.903Z,93960.16
2023-05-12T05:33:14.987Z,93953.13
2023-05-12T05:35:42.473Z,93958.53
2023-05-12T05:38:10.286Z,93961.56
2023-05-12T05:40:51.515Z,93960.34
2023-05-12T05:43:20.161Z,93953.66
2023-05-12T05:45:49.274Z,93953.66
2023-05-12T05:48:15.876Z,93953.66
2023-05-12T05:50:42.611Z,93959.06
2023-05-12T05:53:09.497Z,93955.53
2023-05-12T05:55:37.683Z,93962.59
2023-05-12T05:58:04.405Z,93964.94
2023-05-12T06:00:31.522Z,93964.59
2023-05-12T06:02:58.260Z,93963.38
2023-05-12T06:05:24.904Z,93961.09
2023-05-12T06:07:51.449Z,93969.22
2023-05-12T06:10:18.160Z,93958.25
2023-05-12T06:12:44.932Z,93964.53
2023-05-12T06:15:11.706Z,93961.78
2023-05-12T06:17:39.169Z,93961.31
2023-05-12T06:20:06.644Z,93971.84
2023-05-12T06:22:34.675Z,93967.97
2023-05-12T06:25:02.621Z,93966.38
2023-05-12T06:27:29.503Z,93978.03
2023-05-12T06:29:56.026Z,93971.34
2023-05-12T06:32:22.579Z,93977.13
2023-05-12T06:34:49.175Z,93981.09
2023-05-12T06:37:15.940Z,93974.78
2023-05-12T06:39:42.501Z,93973.53
2023-05-12T06:42:09.208Z,93968.69
2023-05-12T06:44:42.581Z,93972.63
2023-05-12T06:47:09.516Z,93975.72
2023-05-12T06:49:37.161Z,93976.00
2023-05-12T06:52:05.634Z,93963.38
2023-05-12T06:54:33.777Z,93970.69
2023-05-12T06:57:00.414Z,93969.31
2023-05-12T06:59:26.993Z,93971.16
2023-05-12T07:01:53.526Z,93974.69
2023-05-12T07:04:20.111Z,93980.16
2023-05-12T07:06:47.833Z,93979.66
2023-05-12T07:09:14.560Z,93979.88
2023-05-12T07:11:41.083Z,93981.91
2023-05-12T07:14:07.607Z,93980.72
2023-05-12T07:16:34.218Z,93986.34
2023-05-12T07:19:00.857Z,93980.75
2023-05-12T07:21:28.588Z,93979.56
2023-05-12T07:23:55.164Z,93977.25
2023-05-12T07:26:24.119Z,93983.06
2023-05-12T07:28:50.711Z,93979.63
2023-05-12T07:31:17.337Z,93983.69
2023-05-12T07:33:43.946Z,93983.91
2023-05-12T07:36:10.473Z,93985.56
2023-05-12T07:38:37.114Z,93980.38
2023-05-12T07:41:05.580Z,93982.25
2023-05-12T07:43:34.370Z,93979.06
2023-05-12T07:46:01.199Z,93982.69
2023-05-12T07:48:27.826Z,93983.34
2023-05-12T07:50:54.450Z,93984.31
2023-05-12T07:53:21.212Z,93981.81
2023-05-12T07:55:47.800Z,93981.53
2023-05-12T07:58:14.323Z,93991.38
2023-05-12T08:00:40.843Z,93977.50
2023-05-12T08:03:07.751Z,93979.34
2023-05-12T08:05:34.423Z,93975.50
2023-05-12T08:08:01.098Z,93985.03
2023-05-12T08:10:29.877Z,93980.88
2023-05-12T08:12:56.597Z,93988.16
2023-05-12T08:15:23.247Z,93979.50
2023-05-12T08:17:49.853Z,93981.38
2023-05-12T08:20:16.452Z,93978.72
2023-05-12T08:22:44.033Z,93981.47
2023-05-12T08:25:17.917Z,93986.41
2023-05-12T08:27:46.609Z,93984.50
2023-05-12T08:30:13.530Z,93986.47
2023-05-12T08:32:40.386Z,93986.78
2023-05-12T08:35:07.220Z,93987.25
2023-05-12T08:37:34.792Z,93992.41
2023-05-12T08:40:01.718Z,93992.38
2023-05-12T08:42:40.482Z,93986.50
2023-05-12T08:45:08.133Z,93993.38
2023-05-12T08:47:35.256Z,93995.78
2023-05-12T08:50:03.827Z,93994.53
2023-05-12T08:52:33.253Z,93991.88
2023-05-12T08:55:01.100Z,93992.03
2023-05-12T09:30:56.323Z,93978.94
2023-05-12T09:33:22.957Z,93978.34
2023-05-12T09:35:49.476Z,93981.75
2023-05-12T09:38:16.113Z,93975.66
2023-05-12T09:40:43.466Z,93972.69
2023-05-12T09:43:14.408Z,93976.06
2023-05-12T09:45:43.881Z,93973.97
2023-05-12T09:48:11.618Z,93969.66
2023-05-12T09:50:50.399Z,93969.41
2023-05-12T09:53:19.016Z,93970.81
2023-05-12T09:55:47.412Z,93969.03
2023-05-12T09:58:17.747Z,93973.06
2023-05-12T10:01:12.911Z,93967.84
2023-05-12T10:03:34.738Z,93969.75
2023-05-12T10:06:03.821Z,93971.38
2023-05-12T10:09:09.269Z,93965.00
2023-05-12T10:11:36.363Z,93977.03
2023-05-12T10:14:03.676Z,93965.06
2023-05-12T10:16:31.069Z,93973.28
2023-05-12T10:18:58.638Z,93970.00
2023-05-12T10:21:26.133Z,93958.81
2023-05-12T10:23:54.029Z,93963.41
2023-05-12T10:26:21.493Z,93964.50
2023-05-12T10:28:49.835Z,93961.03
2023-05-12T10:31:16.982Z,93956.16
2023-05-12T10:33:43.593Z,93957.53
2023-05-12T10:36:18.220Z,93955.63
2023-05-12T10:38:47.770Z,93958.03
2023-05-12T10:41:14.283Z,93959.53
2023-05-12T10:43:43.495Z,93949.72
2023-05-12T10:46:13.962Z,93952.38
2023-05-12T10:49:05.862Z,93953.47
2023-05-12T10:51:48.754Z,93944.91
2023-05-12T10:54:44.395Z,93948.88
2023-05-12T10:57:18.635Z,93948.72
2023-05-12T10:59:53.118Z,93954.03
2023-05-12T11:02:26.196Z,93947.16
2023-05-12T11:05:04.455Z,93951.88
2023-05-12T11:07:34.693Z,93947.66
2023-05-12T11:10:05.530Z,93953.22
2023-05-12T11:12:36.486Z,93955.03
2023-05-12T11:15:05.091Z,93949.84
2023-05-12T11:17:32.186Z,93946.25
2023-05-12T11:20:00.782Z,93956.41
2023-05-12T11:22:27.481Z,93954.44
2023-05-12T11:24:54.295Z,93954.13
2023-05-12T11:27:23.156Z,93947.91
2023-05-12T11:30:01.277Z,93959.63
2023-05-12T11:32:29.637Z,93958.78
2023-05-12T11:34:56.494Z,93955.22
2023-05-12T11:37:23.243Z,93949.69
2023-05-12T11:39:50.140Z,93949.81
2023-05-12T11:42:19.773Z,93948.28
2023-05-12T11:44:49.365Z,93945.56
2023-05-12T11:47:17.142Z,93947.78
2023-05-12T11:49:54.603Z,93942.66
2023-05-12T11:52:23.052Z,93937.06
2023-05-12T11:54:56.827Z,93952.16
2023-05-12T11:57:35.074Z,93947.50
2023-05-12T12:00:08.012Z,93940.44
2023-05-12T12:02:37.438Z,93953.50
2023-05-12T12:05:05.061Z,93951.50
2023-05-12T12:07:37.519Z,93962.09
2023-05-12T12:10:15.104Z,93961.75
2023-05-12T12:12:42.530Z,93952.34
2023-05-12T12:15:10.598Z,93961.34
2023-05-12T12:17:37.500Z,93958.41
2023-05-12T12:20:06.626Z,93957.28
2023-05-12T12:22:34.487Z,93957.94
2023-05-12T12:25:05.157Z,93951.44
2023-05-12T12:27:32.336Z,93948.91
2023-05-12T12:29:59.181Z,93944.19
2023-05-12T12:32:27.253Z,93947.41
2023-05-12T12:34:59.727Z,93954.88
2023-05-12T12:37:26.975Z,93956.84
2023-05-12T12:39:55.091Z,93956.34
2023-05-12T12:42:22.419Z,93957.63
2023-05-12T12:44:50.506Z,93960.84
2023-05-12T12:47:18.355Z,93958.47
2023-05-12T12:49:46.505Z,93956.44
2023-05-12T12:52:13.411Z,93967.19
2023-05-12T12:54:40.469Z,93963.44
2023-05-12T12:57:07.524Z,93964.66
2023-05-12T12:59:34.422Z,93965.13
2023-05-12T13:02:02.682Z,93974.78
2023-05-12T13:04:29.895Z,93968.03
2023-05-12T13:06:56.728Z,93972.59
2023-05-12T13:09:23.514Z,93981.56
2023-05-12T13:11:50.473Z,93974.72
2023-05-12T13:14:21.307Z,93975.94
2023-05-12T13:16:48.347Z,93980.28
2023-05-12T13:19:17.455Z,93987.28
2023-05-12T13:21:44.340Z,93987.00
2023-05-12T13:24:11.100Z,93985.31
2023-05-12T13:26:43.062Z,93987.19
2023-05-12T13:29:10.019Z,93987.16
2023-05-12T13:31:38.967Z,93982.13
2023-05-12T13:34:06.083Z,93980.66
2023-05-12T13:36:34.808Z,93975.28
2023-05-12T13:39:03.346Z,93980.56
2023-05-12T13:41:30.481Z,93978.81
2023-05-12T13:43:57.459Z,93978.56
2023-05-12T13:46:26.812Z,93983.75
2023-05-12T13:48:55.351Z,93978.94
2023-05-12T13:51:27.139Z,93984.75
2023-05-12T13:53:54.064Z,93979.44
2023-05-12T13:56:21.981Z,93976.03
2023-05-12T13:58:51.256Z,93968.53
2023-05-12T14:01:18.289Z,93966.03
2023-05-12T14:03:45.648Z,93979.91
2023-05-12T14:06:12.825Z,93985.13
2023-05-12T14:08:42.075Z,93981.81
2023-05-12T14:11:11.580Z,93982.66
2023-05-12T14:13:39.969Z,93984.97
2023-05-12T14:16:07.304Z,93988.22
2023-05-12T14:18:34.737Z,93989.78
2023-05-12T14:21:01.996Z,94002.66
2023-05-12T14:23:28.840Z,93995.66
2023-05-12T14:25:55.960Z,94010.69
2023-05-12T14:28:23.433Z,94005.84
2023-05-12T14:30:50.841Z,94013.94
2023-05-12T14:33:17.846Z,94024.59
2023-05-12T14:35:52.927Z,94014.53
2023-05-12T14:38:29.118Z,94014.22
2023-05-12T14:40:55.905Z,94010.94
2023-05-12T14:43:22.964Z,94014.34
2023-05-12T14:45:54.705Z,94014.72
2023-05-12T14:48:23.580Z,94010.22
2023-05-12T14:50:57.927Z,94000.03
2023-05-12T14:53:24.827Z,94007.41
2023-05-12T14:55:53.304Z,93996.13
2023-05-12T14:58:22.048Z,93998.38
2023-05-12T15:00:50.910Z,93998.44
2023-05-12T15:03:19.580Z,93994.72
2023-05-12T15:06:05.079Z,93993.94
2023-05-12T15:08:33.271Z,93993.38
2023-05-12T15:11:00.061Z,94000.22
2023-05-12T15:13:27.113Z,93998.88
2023-05-12T15:15:56.510Z,93984.69
2023-05-12T15:18:24.651Z,93991.47
2023-05-12T15:20:52.069Z,94000.78
2023-05-12T15:23:19.161Z,93992.16
2023-05-12T15:25:46.022Z,93991.75
2023-05-12T15:28:12.917Z,93983.09
2023-05-12T15:30:39.870Z,93992.75
2023-05-12T15:33:07.087Z,93995.84
2023-05-12T15:35:34.441Z,93998.03
2023-05-12T15:38:01.959Z,94000.00
2023-05-12T15:40:31.977Z,94000.94
2023-05-12T15:42:58.547Z,93994.31
2023-05-12T15:45:25.744Z,93997.16
2023-05-12T15:47:53.864Z,93999.91
2023-05-12T15:50:23.209Z,94002.97
2023-05-12T15:52:50.904Z,93999.31
2023-05-12T15:55:19.437Z,93995.03
2023-05-12T15:57:46.897Z,93992.22
2023-05-12T16:00:15.263Z,93984.56
2023-05-12T16:02:42.698Z,93980.97
2023-05-12T16:05:10.042Z,93982.72
2023-05-12T16:07:37.200Z,93986.81
2023-05-12T16:10:04.912Z,93995.28
2023-05-12T16:12:33.971Z,94000.19
2023-05-12T16:15:00.980Z,94007.63
2023-05-12T16:17:27.911Z,93999.69
2023-05-12T16:19:59.323Z,93999.69
2023-05-12T16:22:26.506Z,94001.19
2023-05-12T16:24:54.607Z,93996.88
2023-05-12T16:27:23.063Z,94000.25
2023-05-12T16:29:53.401Z,93998.16
2023-05-12T16:32:20.614Z,93994.78
2023-05-12T16:34:47.302Z,93984.00
2023-05-12T16:37:13.916Z,93995.53
2023-05-12T16:39:40.430Z,93994.13
2023-05-12T16:42:08.038Z,93999.88
2023-05-12T16:44:34.680Z,93992.09
2023-05-12T16:47:03.531Z,94003.25
2023-05-12T16:49:30.097Z,94001.34
2023-05-12T16:51:56.676Z,94010.78
2023-05-12T16:54:23.566Z,94003.09
2023-05-12T16:56:50.213Z,94011.78
2023-05-12T16:59:16.750Z,94015.69
2023-05-12T17:01:43.419Z,94013.09
2023-05-12T17:04:12.404Z,94011.78
2023-05-12T17:06:38.992Z,94011.47
2023-05-12T17:09:05.703Z,94004.75
2023-05-12T17:11:32.247Z,94012.59
2023-05-12T17:13:58.905Z,94015.13
2023-05-12T17:16:25.599Z,94019.72
2023-05-12T17:21:21.658Z,94020.59
2023-05-12T17:23:48.610Z,94020.59
2023-05-12T17:26:15.151Z,94026.75
2023-05-12T17:28:42.285Z,94023.75
2023-05-12T17:31:10.489Z,94025.97
2023-05-12T17:33:37.128Z,94037.59
2023-05-12T17:36:11.666Z,94028.00
2023-05-12T17:38:40.303Z,94035.31
2023-05-12T17:41:06.893Z,94032.91
2023-05-12T17:43:36.011Z,94025.81
2023-05-12T17:46:04.162Z,94035.66
2023-05-12T17:48:33.874Z,94031.72
2023-05-12T17:51:01.473Z,94028.44
2023-05-12T17:53:31.630Z,94033.53
2023-05-12T17:55:59.283Z,94033.88
2023-05-12T17:58:25.965Z,94034.88
2023-05-12T18:00:52.681Z,94047.06
2023-05-12T18:03:23.519Z,94045.88
2023-05-12T18:05:51.337Z,94052.31
2023-05-12T18:08:18.148Z,94050.97
2023-05-12T18:10:45.529Z,94048.91
2023-05-12T18:13:14.629Z,94050.84
2023-05-12T18:15:42.201Z,94060.94
2023-05-12T18:18:10.048Z,94058.66
2023-05-12T18:20:37.051Z,94057.19
2023-05-12T18:23:03.609Z,94062.63
2023-05-12T18:25:30.142Z,94058.78
2023-05-12T18:27:56.760Z,94056.13
2023-05-12T18:30:23.303Z,94060.53
2023-05-12T18:32:50.379Z,94059.78
2023-05-12T18:35:16.995Z,94070.13
2023-05-12T18:37:43.856Z,94063.50
2023-05-12T18:40:11.154Z,94063.44
2023-05-12T18:42:38.317Z,94063.91
2023-05-12T18:45:05.497Z,94065.13
2023-05-12T18:47:34.688Z,94063.94
2023-05-12T18:50:01.535Z,94067.03
2023-05-12T18:52:28.068Z,94071.63
2023-05-12T18:54:54.626Z,94068.50
2023-05-12T18:57:21.612Z,94064.16
2023-05-12T18:59:48.213Z,94072.78
2023-05-12T19:02:14.732Z,94076.78
2023-05-12T19:04:41.383Z,94079.91
2023-05-12T19:07:09.813Z,94087.41
2023-05-12T19:09:37.059Z,94076.50
2023-05-12T19:12:05.879Z,94087.03
2023-05-12T19:14:32.631Z,94089.06
2023-05-12T19:16:59.152Z,94087.88
2023-05-12T19:19:25.705Z,94094.91
2023-05-12T19:21:52.583Z,94097.28
2023-05-12T19:24:19.481Z,94096.94
2023-05-12T19:26:46.266Z,94102.38
2023-05-12T19:29:12.798Z,94102.75
2023-05-12T19:31:39.472Z,94105.56
2023-05-12T19:34:06.237Z,94108.38
2023-05-12T19:36:32.907Z,94108.47
2023-05-12T19:39:00.399Z,94115.91
2023-05-12T19:41:27.954Z,94122.09
2023-05-12T19:43:55.969Z,94118.59
2023-05-12T19:46:22.804Z,94115.84
2023-05-12T19:48:50.996Z,94122.03
2023-05-12T19:51:17.702Z,94130.63
2023-05-12T19:53:44.539Z,94131.81
2023-05-12T19:56:11.205Z,94136.84
2023-05-12T19:58:38.395Z,94132.09
2023-05-12T20:01:05.216Z,94135.25
2023-05-12T20:03:31.884Z,94131.69
2023-05-12T20:05:58.872Z,94127.19
2023-05-12T20:08:25.669Z,94135.84
2023-05-12T20:10:52.221Z,94135.88
2023-05-12T20:13:18.862Z,94137.50
2023-05-12T20:15:45.433Z,94144.94
2023-05-12T20:18:14.641Z,94142.19
2023-05-12T20:20:43.002Z,94140.25
2023-05-12T20:23:09.822Z,94142.59
2023-05-12T20:25:36.658Z,94143.75
2023-05-12T20:28:03.275Z,94146.06
2023-05-12T20:30:32.142Z,94146.06
2023-05-12T20:32:58.720Z,94153.06
2023-05-12T20:35:25.631Z,94149.16
2023-05-12T20:37:52.445Z,94151.50
2023-05-12T20:40:19.709Z,94145.28
2023-05-12T20:42:46.928Z,94149.22
2023-05-12T20:45:14.221Z,94155.47
2023-05-12T20:47:40.813Z,94155.47
2023-05-12T20:50:08.710Z,94152.38
2023-05-12T20:52:40.267Z,94158.25
2023-05-12T20:55:07.638Z,94160.59
2023-05-12T20:57:34.197Z,94162.63
2023-05-12T21:00:00.766Z,94165.41
2023-05-12T21:02:28.622Z,94169.72
2023-05-12T21:04:55.719Z,94163.50
2023-05-12T21:07:22.284Z,94166.63
2023-05-12T21:09:48.837Z,94167.03
2023-05-12T21:12:15.506Z,94163.09
2023-05-12T21:14:43.695Z,94163.50
2023-05-12T21:17:11.054Z,94165.91
2023-05-12T21:19:38.787Z,94165.53
2023-05-12T21:22:06.753Z,94161.22
2023-05-12T21:24:33.663Z,94168.22
2023-05-12T21:27:04.722Z,94156.91
2023-05-12T21:29:32.373Z,94155.31
2023-05-12T21:31:59.373Z,94158.41
2023-05-12T21:34:26.507Z,94159.25
2023-05-12T21:36:53.034Z,94159.69
2023-05-12T21:39:19.568Z,94162.81
2023-05-12T21:41:46.207Z,94161.94
2023-05-12T21:44:12.759Z,94163.88
2023-05-12T21:46:39.566Z,94165.81
2023-05-12T21:49:06.274Z,94163.44
2023-05-12T21:51:33.182Z,94169.34
2023-05-12T21:54:00.156Z,94166.56
2023-05-12T21:56:26.821Z,94163.44
2023-05-12T21:58:53.500Z,94160.31
2023-05-12T22:01:20.256Z,94169.28
2023-05-12T22:03:46.940Z,94165.06
2023-05-12T22:06:13.556Z,94163.91
2023-05-12T22:08:40.161Z,94166.63
2023-05-12T22:11:06.769Z,94166.63
2023-05-12T22:13:33.354Z,94162.75
2023-05-12T22:16:02.924Z,94167.38
2023-05-12T22:18:29.788Z,94170.53
2023-05-12T22:20:56.320Z,94170.09
2023-05-12T22:23:23.220Z,94176.75
2023-05-12T22:25:51.181Z,94175.66
2023-05-12T22:28:18.037Z,94180.75
2023-05-12T22:30:44.616Z,94169.81
2023-05-12T22:33:11.298Z,94171.34
2023-05-12T22:35:37.931Z,94167.84
2023-05-12T22:38:04.561Z,94166.25
2023-05-12T22:40:31.278Z,94162.31
2023-05-12T22:42:57.852Z,94164.31
2023-05-12T22:45:27.494Z,94166.31
2023-05-12T22:47:54.177Z,94172.56
2023-05-12T22:50:21.436Z,94171.03
2023-05-12T22:52:48.230Z,94176.09
2023-05-12T22:55:14.792Z,94165.91
2023-05-12T22:57:43.627Z,94164.31
2023-05-12T23:00:10.564Z,94161.59
2023-05-12T23:02:37.172Z,94163.97
2023-05-12T23:05:04.219Z,94163.19
2023-05-12T23:07:31.135Z,94162.84
2023-05-12T23:09:57.821Z,94163.97
2023-05-12T23:12:24.324Z,94154.59
2023-05-12T23:14:50.955Z,94161.19
2023-05-12T23:17:17.487Z,94154.94
2023-05-12T23:19:44.026Z,94160.16
2023-05-12T23:22:10.537Z,94166.44
2023-05-12T23:24:37.161Z,94172.66
2023-05-12T23:27:04.371Z,94162.50
2023-05-12T23:29:31.008Z,94168.34
2023-05-12T23:31:58.699Z,94167.19
2023-05-12T23:34:25.595Z,94163.72
2023-05-12T23:36:52.396Z,94170.78
2023-05-12T23:39:18.956Z,94170.41
2023-05-12T23:41:45.644Z,94159.84
2023-05-12T23:44:12.462Z,94157.88
2023-05-12T23:46:39.154Z,94160.59
2023-05-12T23:49:06.248Z,94164.88
2023-05-12T23:51:33.089Z,94165.63
2023-05-12T23:54:01.906Z,94169.53
2023-05-12T23:56:28.423Z,94166.75
2023-05-12T23:58:55.287Z,94171.81
